Time,TemperatureF,DewpointF,PressureIn,WindDirection,WindDirectionDegrees,WindSpeedMPH,WindSpeedGustMPH,Humidity,HourlyPrecipIn,Conditions,Clouds,dailyrainin,SoftwareType,DateUTC
2017-08-23 00:00:00,60.0,57.7,30.08,WNW,302,5.0,5.0,92,0.00,,,0.00,Wunderground v.1.15,2017-08-23 07:00:00,
2017-08-23 00:10:00,60.0,57.7,30.08,WNW,300,4.0,4.0,92,0.00,,,0.00,Wunderground v.1.15,2017-08-23 07:10:00,
2017-08-23 00:15:00,59.9,57.6,30.08,WNW,292,4.0,4.0,92,0.00,,,0.00,Wunderground v.1.15,2017-08-23 07:15:00,
2017-08-23 00:20:00,60.0,57.7,30.08,WNW,292,4.0,4.0,92,0.00,,,0.00,Wunderground v.1.15,2017-08-23 07:20:00,
2017-08-23 00:25:00,60.0,57.7,30.08,WNW,286,4.0,6.0,92,0.00,,,0.00,Wunderground v.1.15,2017-08-23 07:25:00,
2017-08-23 00:35:00,60.1,57.8,30.08,WNW,296,5.0,6.0,92,0.00,,,0.00,Wunderground v.1.15,2017-08-23 07:35:00,
2017-08-23 00:40:00,60.1,57.8,30.08,WNW,283,6.0,8.0,92,0.00,,,0.00,Wunderground v.1.15,2017-08-23 07:40:00,
2017-08-23 00:50:00,60.1,57.8,30.08,West,276,5.0,6.0,92,0.00,,,0.00,Wunderground v.1.15,2017-08-23 07:50:00,
2017-08-23 00:55:00,60.1,57.8,30.08,WNW,298,5.0,6.0,92,0.00,,,0.00,Wunderground v.1.15,2017-08-23 07:55:00,
2017-08-23 01:05:00,59.9,57.6,30.08,WNW,293,5.0,6.0,92,0.00,,,0.00,Wunderground v.1.15,2017-08-23 08:05:00,
2017-08-23 01:15:00,59.9,57.6,30.08,WNW,301,4.0,5.0,92,0.00,,,0.00,Wunderground v.1.15,2017-08-23 08:15:00,
2017-08-23 01:25:00,60.0,58.0,30.08,WNW,300,4.0,5.0,93,0.00,,,0.00,Wunderground v.1.15,2017-08-23 08:25:00,
2017-08-23 01:30:00,60.1,58.1,30.08,WNW,294,4.0,4.0,93,0.00,,,0.00,Wunderground v.1.15,2017-08-23 08:30:00,
2017-08-23 01:35:00,60.0,58.0,30.08,West,275,5.0,7.0,93,0.00,,,0.00,Wunderground v.1.15,2017-08-23 08:35:00,
2017-08-23 01:45:00,60.0,58.0,30.08,WNW,291,5.0,5.0,93,0.00,,,0.00,Wunderground v.1.15,2017-08-23 08:45:00,
2017-08-23 01:50:00,60.2,58.2,30.07,West,281,5.0,8.0,93,0.00,,,0.00,Wunderground v.1.15,2017-08-23 08:50:00,
2017-08-23 02:00:00,60.6,58.3,30.07,WNW,282,7.0,7.0,92,0.00,,,0.00,Wunderground v.1.15,2017-08-23 09:00:00,
2017-08-23 02:05:00,60.6,58.3,30.07,NW,313,6.0,7.0,92,0.00,,,0.00,Wunderground v.1.15,2017-08-23 09:05:00,
2017-08-23 02:10:00,60.3,57.7,30.07,WNW,293,5.0,5.0,91,0.00,,,0.00,Wunderground v.1.15,2017-08-23 09:10:00,
2017-08-23 02:15:00,60.8,58.5,30.07,WNW,289,5.0,6.0,92,0.00,,,0.00,Wunderground v.1.15,2017-08-23 09:15:00,